Flight Track Log - Related Links

Times and Time Zones

All times are in EDT time to prevent confusion due to time zone crossing. See the N310DE flight status page for this flight to view local times or setup timezone preferences in your user account.

Time Position Orientation Groundspeed Altitude Reporting Facility
EDT Latitude Longitude Course Direction KTS MPH feet Rate Location/Type
Thu 05:07:31 PM 33.6333 -117.8833 102° East 154 177 2,000  Level Southern California TRACON
Thu 05:12:56 PM 33.5742 -117.5497 82° East 298 343 11,100 1,745 Climbing Los Angeles Center
Thu 05:13:56 PM 33.5881 -117.4253 87° East 340 391 13,200 2,400 Climbing Los Angeles Center
Thu 05:14:56 PM 33.5936 -117.2933 87° East 375 432 15,900 2,600 Climbing Los Angeles Center
Thu 05:15:56 PM 33.5992 -117.1561 87° East 393 452 18,400 2,521 Climbing Los Angeles Center
Thu 05:16:55 PM 33.6044 -117.0167 89° East 407 468 20,900 2,300 Climbing Los Angeles Center
Thu 05:17:56 PM 33.6075 -116.8694 87° East 425 489 23,000 2,033 Climbing Los Angeles Center
Thu 05:18:56 PM 33.6144 -116.7075 87° East 437 503 25,000 1,750 Climbing Los Angeles Center
Thu 05:19:56 PM 33.6214 -116.5503 88° East 448 516 26,500 1,500 Climbing Los Angeles Center
Thu 05:20:56 PM 33.6261 -116.3906 89° East 461 531 28,000 1,500 Climbing Los Angeles Center
Thu 05:21:56 PM 33.6286 -116.2308 88° East 472 543 29,500 1,550 Climbing Los Angeles Center
Thu 05:22:56 PM 33.6328 -116.0889 85° East 472 543 31,100 1,550 Climbing Los Angeles Center
Thu 05:23:56 PM 33.6431 -115.9317 79° East 478 550 32,600 1,550 Climbing Los Angeles Center
Thu 05:24:56 PM 33.6717 -115.7467 78° East 493 567 34,200 1,350 Climbing Los Angeles Center
Thu 05:25:56 PM 33.6964 -115.6069 81° East 487 560 35,300 1,300 Climbing Los Angeles Center
Thu 05:26:56 PM 33.7186 -115.4419 79° East 475 547 36,800 850 Climbing Los Angeles Center
Thu 05:27:56 PM 33.7425 -115.2894 81° East 461 531 37,000 100 Climbing Los Angeles Center
Thu 05:28:56 PM 33.7622 -115.1392 76° East 466 536 37,000 -50 Level Los Angeles Center
Thu 05:29:56 PM 33.7964 -114.9739 81° East 472 543 36,900 -50 Descending Los Angeles Center
Thu 05:30:56 PM 33.8178 -114.8186 76° East 472 543 36,900 50 Level Los Angeles Center
Thu 05:31:56 PM 33.8494 -114.6631 79° East 472 543 37,000 30 Climbing Los Angeles Center
Thu 05:34:19 PM 33.9086 -114.2869 82° East 473 544 37,000  Level Albuquerque Center
Thu 05:35:19 PM 33.9258 -114.1358 80° East 473 544 37,000  Level Albuquerque Center
Thu 05:36:19 PM 33.9458 -113.9997 79° East 467 537 37,000  Level Albuquerque Center
Thu 05:37:19 PM 33.9711 -113.8417 79° East 467 537 37,000  Level Albuquerque Center
Thu 05:38:19 PM 33.9961 -113.6883 79° East 467 537 37,000  Level Albuquerque Center
Thu 05:39:19 PM 34.0211 -113.5322 79° East 462 532 37,000  Level Albuquerque Center
Thu 05:40:19 PM 34.0456 -113.3786 80° East 468 539 37,000  Level Albuquerque Center
Thu 05:41:19 PM 34.0678 -113.2225 80° East 468 539 37,000  Level Albuquerque Center
Thu 05:42:19 PM 34.0928 -113.0511 80° East 468 539 37,000  Level Albuquerque Center
Thu 05:43:19 PM 34.1147 -112.8972 78° East 468 539 37,000  Level Albuquerque Center
Thu 05:44:19 PM 34.1406 -112.7433 81° East 463 533 37,000  Level Albuquerque Center
Thu 05:45:19 PM 34.1622 -112.5842 80° East 468 539 37,000  Level Albuquerque Center
Thu 05:46:19 PM 34.1853 -112.4325 81° East 473 544 37,000  Level Albuquerque Center
Thu 05:47:19 PM 34.2036 -112.2928 81° East 463 533 37,000  Level Albuquerque Center
Thu 05:48:19 PM 34.2244 -112.1408 81° East 463 533 37,000  Level Albuquerque Center
Thu 05:49:19 PM 34.2453 -111.9839 81° East 463 533 37,000  Level Albuquerque Center
Thu 05:50:19 PM 34.2658 -111.8292 80° East 463 533 37,000  Level Albuquerque Center
Thu 05:51:19 PM 34.2881 -111.6772 81° East 463 533 37,000  Level Albuquerque Center
Thu 05:52:19 PM 34.3081 -111.5222 81° East 463 533 37,000  Level Albuquerque Center
Thu 05:53:19 PM 34.3281 -111.3697 80° East 463 533 37,000  Level Albuquerque Center
Thu 05:54:19 PM 34.3494 -111.2225 83° East 458 527 37,000  Level Albuquerque Center
Thu 05:55:19 PM 34.3647 -111.0722 78° East 453 521 37,000  Level Albuquerque Center
Thu 05:56:19 PM 34.3900 -110.9225 81° East 447 514 37,000  Level Albuquerque Center
Thu 05:57:19 PM 34.4092 -110.7722 81° East 447 514 37,000  Level Albuquerque Center
Thu 05:58:19 PM 34.4278 -110.6219 82° East 447 514 37,000  Level Albuquerque Center
Thu 05:59:19 PM 34.4464 -110.4689 82° East 447 514 37,000  Level Albuquerque Center
Thu 06:00:19 PM 34.4653 -110.3033 80° East 447 514 37,000  Level Albuquerque Center
Thu 06:01:19 PM 34.4853 -110.1656 82° East 447 514 37,000  Level Albuquerque Center
Thu 06:02:19 PM 34.5036 -110.0025 82° East 447 514 37,000  Level Albuquerque Center
Thu 06:03:19 PM 34.5214 -109.8542 81° East 447 514 37,000  Level Albuquerque Center
Thu 06:04:19 PM 34.5411 -109.7061 83° East 447 514 37,000  Level Albuquerque Center
Thu 06:05:19 PM 34.5542 -109.5703 83° East 447 514 37,000  Level Albuquerque Center
Thu 06:06:19 PM 34.5694 -109.4142 89° East 447 514 37,000  Level Albuquerque Center
Thu 06:07:19 PM 34.5719 -109.2606 80° East 447 514 37,000  Level Albuquerque Center
Thu 06:08:19 PM 34.5931 -109.1097 75° East 447 514 37,000  Level Albuquerque Center
Thu 06:09:19 PM 34.6264 -108.9614 83° East 447 514 37,000  Level Albuquerque Center
Thu 06:10:19 PM 34.6408 -108.8078 83° East 447 514 37,000  Level Albuquerque Center
Thu 06:11:19 PM 34.6553 -108.6539 80° East 447 514 37,000  Level Albuquerque Center
Thu 06:12:19 PM 34.6756 -108.5078 82° East 447 514 37,000 -400 Level Albuquerque Center
Thu 06:13:19 PM 34.6914 -108.3614 86° East 441 507 36,200 -850 Descending Albuquerque Center
Thu 06:14:19 PM 34.7008 -108.2125 89° East 441 507 35,300 -900 Descending Albuquerque Center
Thu 06:15:19 PM 34.7039 -108.0636 97° East 441 507 34,400 -950 Descending Albuquerque Center
Thu 06:16:19 PM 34.6881 -107.9144 99° East 441 507 33,400 -1,100 Descending Albuquerque Center
Thu 06:17:19 PM 34.6678 -107.7525 90° East 446 513 32,200 -1,050 Descending Albuquerque Center
Thu 06:18:19 PM 34.6681 -107.6036 83° East 446 513 31,300 -900 Descending Albuquerque Center
Thu 06:19:19 PM 34.6831 -107.4522 82° East 441 507 30,400 -900 Descending Albuquerque Center
Thu 06:20:19 PM 34.6997 -107.3131 83° East 447 514 29,500 -700 Descending Albuquerque Center
Thu 06:21:19 PM 34.7161 -107.1489 83° East 447 514 29,000 -250 Descending Albuquerque Center
Thu 06:22:19 PM 34.7325 -106.9947 82° East 447 514 29,000  Level Albuquerque Center
Thu 06:23:19 PM 34.7508 -106.8431 84° East 453 521 29,000  Level Albuquerque Center
Thu 06:24:19 PM 34.7647 -106.6886 81° East 453 521 29,000  Level Albuquerque Center
Thu 06:25:19 PM 34.7844 -106.5392 83° East 458 527 29,000  Level Albuquerque Center
Thu 06:26:19 PM 34.8000 -106.3822 84° East 458 527 29,000  Level Albuquerque Center
Thu 06:27:19 PM 34.8133 -106.2278 81° East 463 533 29,000  Level Albuquerque Center
Thu 06:28:19 PM 34.8328 -106.0758 85° East 463 533 29,000  Level Albuquerque Center
Thu 06:29:19 PM 34.8433 -105.9211 83° East 458 527 29,000  Level Albuquerque Center
Thu 06:30:19 PM 34.8581 -105.7664 83° East 463 533 29,000 -550 Level Albuquerque Center
Thu 06:31:19 PM 34.8728 -105.6169 83° East 458 527 27,900 -950 Descending Albuquerque Center
Thu 06:32:19 PM 34.8856 -105.4875 84° East 445 512 27,100 -450 Descending Albuquerque Center
Thu 06:33:19 PM 34.8975 -105.3378 83° East 437 503 27,000 -50 Descending Albuquerque Center
Thu 06:34:19 PM 34.9117 -105.1906 84° East 437 503 27,000  Level Albuquerque Center
Thu 06:35:19 PM 34.9236 -105.0383 83° East 437 503 27,000  Level Albuquerque Center
Thu 06:36:19 PM 34.9372 -104.8933 84° East 443 510 27,000  Level Albuquerque Center
Thu 06:37:19 PM 34.9508 -104.7433 85° East 448 516 27,000  Level Albuquerque Center
Thu 06:38:19 PM 34.9622 -104.5961 85° East 440 506 27,000  Level Albuquerque Center
Thu 06:39:19 PM 34.9733 -104.4486 84° East 440 506 27,000  Level Albuquerque Center
Thu 06:40:31 PM 34.9861 -104.2986 84° East 440 506 27,000  Level Albuquerque Center
Thu 06:42:31 PM 35.0128 -103.9731 85° East 445 512 27,000  Level Albuquerque Center
Thu 06:43:31 PM 35.0231 -103.8231 84° East 445 512 27,000  Level Albuquerque Center
Thu 06:44:31 PM 35.0356 -103.6778 84° East 445 512 27,000  Level Albuquerque Center
Thu 06:45:31 PM 35.0475 -103.5278 84° East 445 512 27,000  Level Albuquerque Center
Thu 06:46:31 PM 35.0594 -103.3800 85° East 440 506 27,000  Level Albuquerque Center
Thu 06:48:31 PM 35.0803 -103.0819 84° East 443 510 27,000  Level Albuquerque Center
Thu 06:49:31 PM 35.0917 -102.9367 86° East 443 510 27,000  Level Albuquerque Center
Thu 06:50:31 PM 35.1008 -102.7864 85° East 443 510 27,000  Level Albuquerque Center
Thu 06:51:31 PM 35.1117 -102.6358 86° East 443 510 27,000  Level Albuquerque Center
Thu 06:52:31 PM 35.1203 -102.4881 85° East 443 510 27,000  Level Albuquerque Center
Thu 06:53:32 PM 35.1308 -102.3375 85° East 443 510 27,000  Level Albuquerque Center
Thu 06:54:31 PM 35.1411 -102.1872 85° East 443 510 27,000  Level Albuquerque Center
Thu 06:55:31 PM 35.1511 -102.0367 84° East 443 510 27,000  Level Albuquerque Center
Thu 06:56:31 PM 35.1664 -101.8678 87° East 448 516 27,000  Level Albuquerque Center
Thu 06:57:31 PM 35.1739 -101.7147 88° East 448 516 27,000  Level Albuquerque Center
Thu 06:58:31 PM 35.1792 -101.5594 86° East 453 521 27,000  Level Albuquerque Center
Thu 06:59:31 PM 35.1883 -101.4064 86° East 453 521 27,000  Level Albuquerque Center
Thu 07:00:31 PM 35.1975 -101.2583 87° East 443 510 27,000  Level Albuquerque Center
Thu 07:01:31 PM 35.2044 -101.1103 86° East 443 510 27,000  Level Albuquerque Center
Thu 07:02:31 PM 35.2131 -100.9597 85° East 443 510 27,000  Level Albuquerque Center
Thu 07:03:31 PM 35.2236 -100.8061 87° East 443 510 27,000  Level Albuquerque Center
Thu 07:04:31 PM 35.2294 -100.6861 87° East 443 510 27,000  Level Albuquerque Center
Thu 07:06:34 PM 35.2444 -100.3519 87° East 453 521 27,000  Level Fort Worth Center
Thu 07:07:34 PM 35.2497 -100.2047 85° East 441 507 27,000  Level Fort Worth Center
Thu 07:08:45 PM 35.2594 -100.0550 88° East 441 507 27,000  Level Fort Worth Center
Thu 07:09:46 PM 35.2650 -99.8747 86° East 441 507 27,000  Level Fort Worth Center
Thu 07:10:46 PM 35.2742 -99.7300 88° East 441 507 27,000  Level Fort Worth Center
Thu 07:11:46 PM 35.2789 -99.5803 87° East 441 507 27,000  Level Fort Worth Center
Thu 07:12:46 PM 35.2856 -99.4328 87° East 441 507 27,000  Level Fort Worth Center
Thu 07:13:46 PM 35.2922 -99.2803 88° East 441 507 27,000  Level Fort Worth Center
Thu 07:14:46 PM 35.2964 -99.1306 88° East 441 507 27,000  Level Fort Worth Center
Thu 07:15:45 PM 35.3000 -99.0108 87° East 441 507 27,000  Level Fort Worth Center
Thu 07:16:46 PM 35.3086 -98.8281 87° East 441 507 27,000 50 Level Fort Worth Center
Thu 07:17:46 PM 35.3144 -98.6756 87° East 441 507 27,100 950 Climbing Fort Worth Center
Thu 07:18:46 PM 35.3200 -98.5228 88° East 441 507 28,900 950 Climbing Fort Worth Center
Thu 07:19:46 PM 35.3231 -98.3931 88° East 436 502 29,000 350 Climbing Fort Worth Center
Thu 07:20:46 PM 35.3283 -98.2328 88° East 443 510 29,600 1,050 Climbing Fort Worth Center
Thu 07:21:46 PM 35.3336 -98.0675 88° East 464 534 31,100 1,600 Climbing Fort Worth Center
Thu 07:22:46 PM 35.3386 -97.9047 88° East 471 542 32,800 1,550 Climbing Fort Worth Center
Thu 07:23:46 PM 35.3433 -97.7267 89° East 477 549 34,200 1,350 Climbing Fort Worth Center
Thu 07:24:46 PM 35.3456 -97.5636 87° East 477 549 35,500 1,450 Climbing Fort Worth Center
Thu 07:25:46 PM 35.3519 -97.3933 88° East 484 557 37,100 1,350 Climbing Fort Worth Center
Thu 07:26:46 PM 35.3561 -97.2303 89° East 484 557 38,200 900 Climbing Fort Worth Center
Thu 07:27:46 PM 35.3578 -97.0775 89° East 490 564 38,900 400 Climbing Fort Worth Center
Thu 07:28:46 PM 35.3594 -96.9172 88° East 483 556 39,000 50 Climbing Fort Worth Center
Thu 07:29:46 PM 35.3647 -96.7364 89° East 476 548 39,000  Level Fort Worth Center
Thu 07:30:46 PM 35.3681 -96.5708 90° East 476 548 39,000  Level Fort Worth Center
Thu 07:31:46 PM 35.3689 -96.4106 92° East 476 548 39,000  Level Fort Worth Center
Thu 07:32:46 PM 35.3633 -96.2450 92° East 476 548 39,000  Level Fort Worth Center
Thu 07:33:46 PM 35.3575 -96.0822 93° East 476 548 39,000  Level Fort Worth Center
Thu 07:34:46 PM 35.3514 -95.9169 92° East 476 548 39,000  Level Fort Worth Center
Thu 07:37:08 PM 35.3397 -95.5417 92° East 476 548 39,000  Level Memphis Center
Thu 07:38:08 PM 35.3339 -95.3761 92° East 481 554 39,000  Level Memphis Center
Thu 07:39:08 PM 35.3281 -95.2103 93° East 481 554 39,000  Level Memphis Center
Thu 07:40:08 PM 35.3200 -95.0419 93° East 487 560 39,000  Level Memphis Center
Thu 07:41:08 PM 35.3136 -94.8761 93° East 487 560 39,000  Level Memphis Center
Thu 07:42:09 PM 35.3072 -94.7028 93° East 487 560 39,000  Level Memphis Center
Thu 07:43:08 PM 35.2989 -94.5167 92° East 503 579 39,000  Level Memphis Center
Thu 07:44:08 PM 35.2939 -94.3483 95° East 498 573 39,000  Level Memphis Center
Thu 07:45:08 PM 35.2825 -94.1800 92° East 498 573 39,000  Level Memphis Center
Thu 07:46:08 PM 35.2772 -94.0119 93° East 498 573 39,000  Level Memphis Center
Thu 07:47:08 PM 35.2697 -93.8386 93° East 498 573 39,000  Level Memphis Center
Thu 07:48:08 PM 35.2617 -93.6756 94° East 498 573 39,000  Level Memphis Center
Thu 07:49:08 PM 35.2514 -93.5075 93° East 498 573 39,000  Level Memphis Center
Thu 07:50:08 PM 35.2447 -93.3494 94° East 486 559 39,000  Level Memphis Center
Thu 07:51:08 PM 35.2361 -93.1814 94° East 481 554 39,000  Level Memphis Center
Thu 07:52:08 PM 35.2253 -93.0133 94° East 481 554 39,000  Level Memphis Center
Thu 07:53:08 PM 35.2164 -92.8453 95° East 481 554 39,000  Level Memphis Center
Thu 07:54:08 PM 35.2047 -92.6925 94° East 491 565 39,000  Level Memphis Center
Thu 07:55:08 PM 35.1950 -92.5244 95° East 496 571 39,000  Level Memphis Center
Thu 07:56:08 PM 35.1833 -92.3617 94° East 496 571 39,000  Level Memphis Center
Thu 07:57:08 PM 35.1733 -92.1961 93° East 496 571 39,000  Level Memphis Center
Thu 07:58:08 PM 35.1653 -92.0283 95° East 490 564 39,000  Level Memphis Center
Thu 07:59:08 PM 35.1528 -91.8581 96° East 495 570 39,000  Level Memphis Center
Thu 08:00:08 PM 35.1381 -91.6903 93° East 500 575 39,000  Level Memphis Center
Thu 08:01:08 PM 35.1292 -91.5147 93° East 500 575 39,000  Level Memphis Center
Thu 08:02:08 PM 35.1225 -91.3497 95° East 495 570 39,000  Level Memphis Center
Thu 08:03:08 PM 35.1089 -91.1769 96° East 501 577 39,000  Level Memphis Center
Thu 08:04:08 PM 35.0933 -90.9942 94° East 501 577 39,000  Level Memphis Center
Thu 08:05:08 PM 35.0836 -90.8267 96° East 496 571 39,000  Level Memphis Center
Thu 08:06:08 PM 35.0694 -90.6617 94° East 496 571 39,000  Level Memphis Center
Thu 08:07:08 PM 35.0594 -90.4992 96° East 489 563 39,000  Level Memphis Center
Thu 08:08:08 PM 35.0450 -90.3367 95° East 479 551 39,000  Level Memphis Center
Thu 08:09:08 PM 35.0344 -90.1769 96° East 479 551 39,000  Level Memphis Center
Thu 08:10:08 PM 35.0214 -90.0197 98° East 479 551 39,000  Level Memphis Center
Thu 08:11:08 PM 35.0044 -89.8753 101° East 474 545 39,000  Level Memphis Center
Thu 08:12:08 PM 34.9786 -89.7133 100° East 483 556 39,000  Level Memphis Center
Thu 08:14:08 PM 34.9283 -89.3819 101° East 477 549 39,000  Level Memphis Center
Thu 08:15:08 PM 34.9042 -89.2253 101° East 472 543 39,000  Level Memphis Center
Thu 08:16:08 PM 34.8794 -89.0661 101° East 467 537 39,000 -100 Level Memphis Center
Thu 08:17:08 PM 34.8550 -88.9119 100° East 467 537 38,800 -600 Descending Memphis Center
Thu 08:18:08 PM 34.8322 -88.7556 101° East 467 537 37,800 -1,000 Descending Memphis Center
Thu 08:19:08 PM 34.8069 -88.5992 102° East 467 537 36,800 -900 Descending Memphis Center
Thu 08:20:08 PM 34.7842 -88.4683 100° East 467 537 36,000 -900 Descending Memphis Center
Thu 08:21:08 PM 34.7608 -88.3119 102° East 461 531 35,000 -950 Descending Memphis Center
Thu 08:22:08 PM 34.7331 -88.1483 100° East 475 547 34,100 -950 Descending Memphis Center
Thu 08:23:08 PM 34.7092 -87.9900 101° East 486 559 33,100 -550 Descending Memphis Center
Thu 08:24:08 PM 34.6833 -87.8342 101° East 481 554 33,000 -50 Descending Memphis Center
Thu 08:25:08 PM 34.6569 -87.6758 102° East 481 554 33,000  Level Memphis Center
Thu 08:26:08 PM 34.6261 -87.5053 101° East 475 547 33,000  Level Memphis Center
Thu 08:27:27 PM 34.5912 -87.2908 103° East 481 554 33,000  Level FlightAware ADS-B
Thu 08:28:02 PM 34.5737 -87.1997 103° East 481 554 33,000  Level FlightAware ADS-B
Thu 08:28:41 PM 34.5541 -87.0962 103° East 482 555 33,000  Level FlightAware ADS-B
Thu 08:29:41 PM 34.5258 -86.9483 108° East 483 556 33,000  Level Atlanta Center
Thu 08:30:41 PM 34.4836 -86.7906 108° East 483 556 33,000  Level Atlanta Center
Thu 08:31:45 PM 34.4378 -86.6171 108° East 489 563 33,000  Level FlightAware ADS-B
Thu 08:32:17 PM 34.4160 -86.5349 108° East 490 564 33,000  Level FlightAware ADS-B
Thu 08:32:48 PM 34.3944 -86.4540 108° East 489 563 33,000  Level FlightAware ADS-B
Thu 08:33:19 PM 34.3729 -86.3735 108° East 490 564 33,000  Level FlightAware ADS-B
Thu 08:33:49 PM 34.3516 -86.2942 108° East 489 563 33,000  Level FlightAware ADS-B
Thu 08:34:23 PM 34.3282 -86.2073 108° East 489 563 33,000  Level FlightAware ADS-B
Thu 08:35:23 PM 34.2861 -86.0517 108° East 489 563 33,000 -1,380 Level FlightAware ADS-B
Thu 08:36:03 PM 34.2579 -85.9472 108° East 493 567 30,700 -3,514 Descending FlightAware ADS-B
Thu 08:36:33 PM 34.2363 -85.8671 108° East 496 571 28,900 -3,148 Descending FlightAware ADS-B
Thu 08:37:04 PM 34.2147 -85.7883 108° East 482 555 27,500 -2,958 Descending FlightAware ADS-B
Thu 08:37:44 PM 34.1873 -85.6881 108° East 472 543 25,400 -3,086 Descending FlightAware ADS-B
Thu 08:38:14 PM 34.1673 -85.6156 109° East 453 521 23,900 -3,148 Descending FlightAware ADS-B
Thu 08:38:45 PM 34.1469 -85.5426 109° East 450 518 22,200 -3,000 Descending FlightAware ADS-B
Thu 08:39:16 PM 34.1255 -85.4680 111° Southeast 443 510 20,800 -2,533 Descending FlightAware ADS-B
Thu 08:40:15 PM 34.0833 -85.3333 105° East 436 502 18,400 -2,448 Descending Atlanta TRACON
Thu 08:41:21 PM 34.0500 -85.1833 109° East 424 488 15,700 -2,095 Descending Atlanta TRACON
Thu 08:42:21 PM 34.0167 -85.0667 107° East 407 468 14,000 -1,300 Descending Atlanta TRACON
Thu 08:43:21 PM 33.9833 -84.9333 117° Southeast 395 455 13,100 -850 Descending Atlanta TRACON
Thu 08:44:21 PM 33.9333 -84.8167 140° Southeast 388 447 12,300 -550 Descending Atlanta TRACON
Thu 08:45:21 PM 33.8500 -84.7333 129° Southeast 381 438 12,000 -150 Descending Atlanta TRACON
Thu 08:46:21 PM 33.7833 -84.6333 126° Southeast 365 420 12,000 -100 Level Atlanta TRACON
Thu 08:47:21 PM 33.7333 -84.5500 90° East 298 343 11,800 -900 Descending Atlanta TRACON
Thu 08:48:21 PM 33.7333 -84.4667 90° East 275 316 10,200 -1,750 Descending Atlanta TRACON
Thu 08:49:21 PM 33.7333 -84.3667 90° East 254 292 8,300 -1,650 Descending Atlanta TRACON
Thu 08:50:21 PM 33.7333 -84.3000 90° East 232 267 6,900 -1,300 Descending Atlanta TRACON
Thu 08:51:21 PM 33.7333 -84.2167 180° South 212 244 5,700 -1,158 Descending Atlanta TRACON
Thu 08:52:15 PM 33.6833 -84.2167 231° Southwest 208 239 4,700 -1,200 Descending Atlanta TRACON
Thu 08:53:21 PM 33.6500 -84.2667 270° West 182 209 3,300 -1,143 Descending Atlanta TRACON
Thu 08:54:21 PM 33.6500 -84.3333 270° West 168 193 2,300 -850 Descending Atlanta TRACON
Thu 08:55:21 PM 33.6500 -84.3667 248° West 136 157 1,600 -700 Descending Atlanta TRACON
Thu 09:02:32 PM 33.6333 -84.4167 248° West  Level FlightAware Approximate

Login

Don't have an account? Register now (free) for customized features, flight alerts, and more!